createdAt,value
2022-07-28T00:00:15.818Z,27.46
2022-07-28T00:02:43.625Z,27.37
2022-07-28T00:05:11.465Z,27.13
2022-07-28T00:07:39.073Z,26.79
2022-07-28T00:10:07.954Z,26.92
2022-07-28T00:12:35.569Z,27.34
2022-07-28T00:15:03.639Z,27.49
2022-07-28T00:17:32.193Z,27.56
2022-07-28T00:19:59.684Z,27.70
2022-07-28T00:22:27.166Z,27.63
2022-07-28T00:24:54.937Z,27.65
2022-07-28T00:27:22.759Z,27.80
2022-07-28T00:29:51.385Z,27.64
2022-07-28T00:32:20.670Z,27.43
2022-07-28T00:34:48.556Z,27.75
2022-07-28T00:37:16.074Z,27.87
2022-07-28T00:39:44.085Z,28.03
2022-07-28T00:42:12.416Z,27.98
2022-07-28T00:44:42.020Z,27.96
2022-07-28T00:47:10.166Z,28.12
2022-07-28T00:49:38.070Z,28.20
2022-07-28T00:52:09.709Z,28.25
2022-07-28T00:54:37.551Z,28.31
2022-07-28T00:57:06.064Z,28.25
2022-07-28T00:59:34.056Z,28.13
2022-07-28T01:02:02.509Z,28.20
2022-07-28T01:04:30.310Z,28.15
2022-07-28T01:07:23.726Z,28.08
2022-07-28T01:09:59.845Z,28.19
2022-07-28T01:12:33.286Z,27.95
2022-07-28T01:15:10.168Z,28.05
2022-07-28T01:17:53.350Z,28.12
2022-07-28T01:20:36.541Z,28.22
2022-07-28T01:23:32.080Z,28.21
2022-07-28T01:26:31.076Z,28.21
2022-07-28T01:29:14.417Z,28.13
2022-07-28T01:31:51.570Z,28.18
2022-07-28T01:34:24.152Z,28.12
2022-07-28T01:37:03.458Z,27.94
2022-07-28T01:39:32.710Z,27.97
2022-07-28T01:42:01.888Z,27.84
2022-07-28T01:44:30.100Z,27.82
2022-07-28T01:46:57.913Z,27.73
2022-07-28T01:49:26.654Z,27.66
2022-07-28T01:51:56.434Z,27.67
2022-07-28T01:54:28.415Z,27.61
2022-07-28T01:56:56.895Z,27.59
2022-07-28T01:59:24.882Z,27.58
2022-07-28T02:01:52.478Z,27.48
2022-07-28T02:04:21.590Z,27.35
2022-07-28T02:06:49.918Z,27.33
2022-07-28T02:09:19.092Z,27.28
2022-07-28T02:11:47.926Z,27.08
2022-07-28T02:14:26.100Z,27.16
2022-07-28T02:16:58.902Z,27.14
2022-07-28T02:19:27.292Z,27.12
2022-07-28T02:21:55.933Z,26.93
2022-07-28T02:24:28.210Z,26.95
2022-07-28T02:26:59.560Z,26.70
2022-07-28T02:29:49.832Z,26.68
2022-07-28T02:32:28.879Z,26.67
2022-07-28T02:35:13.519Z,26.47
2022-07-28T02:37:47.397Z,26.57
2022-07-28T02:40:15.477Z,26.46
2022-07-28T02:42:45.305Z,26.42
2022-07-28T02:45:13.713Z,26.39
2022-07-28T02:47:45.888Z,26.50
2022-07-28T02:50:15.117Z,26.43
2022-07-28T02:52:43.974Z,26.32
2022-07-28T02:55:14.177Z,26.30
2022-07-28T02:57:43.554Z,26.31
2022-07-28T03:00:12.156Z,26.24
2022-07-28T03:02:41.333Z,26.14
2022-07-28T03:05:11.015Z,26.15
2022-07-28T03:07:42.492Z,26.16
2022-07-28T03:10:33.079Z,26.23
2022-07-28T03:13:09.437Z,26.22
2022-07-28T03:15:40.195Z,26.17
2022-07-28T03:18:07.990Z,26.15
2022-07-28T03:20:35.598Z,26.01
2022-07-28T03:23:04.281Z,26.01
2022-07-28T03:25:39.722Z,26.08
2022-07-28T03:28:09.456Z,26.00
2022-07-28T03:30:42.206Z,26.00
2022-07-28T03:33:10.081Z,25.93
2022-07-28T03:35:40.054Z,25.79
2022-07-28T03:38:26.611Z,25.59
2022-07-28T03:40:56.430Z,25.92
2022-07-28T03:43:25.443Z,25.76
2022-07-28T03:45:53.090Z,25.73
2022-07-28T03:48:24.756Z,25.84
2022-07-28T03:50:52.224Z,25.88
2022-07-28T03:53:29.725Z,26.01
2022-07-28T03:55:57.724Z,25.94
2022-07-28T03:58:28.919Z,26.07
2022-07-28T04:00:57.573Z,25.91
2022-07-28T04:03:36.465Z,25.72
2022-07-28T04:06:12.926Z,25.95
2022-07-28T04:08:41.650Z,26.20
2022-07-28T04:11:09.140Z,26.27
2022-07-28T04:13:37.250Z,26.25
2022-07-28T04:16:06.975Z,26.31
2022-07-28T04:18:35.219Z,26.33
2022-07-28T04:21:02.761Z,26.58
2022-07-28T04:23:30.970Z,26.53
2022-07-28T04:25:58.586Z,26.57
2022-07-28T04:28:26.136Z,26.51
2022-07-28T04:30:54.039Z,26.54
2022-07-28T04:33:21.596Z,26.55
2022-07-28T04:35:49.133Z,26.68
2022-07-28T04:38:18.122Z,26.66
2022-07-28T04:40:48.878Z,26.70
2022-07-28T04:43:16.722Z,26.54
2022-07-28T04:45:53.323Z,26.61
2022-07-28T04:48:23.536Z,26.59
2022-07-28T04:50:53.018Z,26.64
2022-07-28T04:53:22.945Z,26.69
2022-07-28T04:55:52.637Z,26.68
2022-07-28T04:58:22.638Z,26.66
2022-07-28T05:00:51.672Z,26.82
2022-07-28T05:03:20.128Z,26.86
2022-07-28T05:05:54.175Z,26.81
2022-07-28T05:08:25.692Z,26.80
2022-07-28T05:10:57.025Z,26.83
2022-07-28T05:13:28.872Z,26.93
2022-07-28T05:15:59.312Z,26.89
2022-07-28T05:18:27.162Z,26.93
2022-07-28T05:20:54.618Z,27.07
2022-07-28T05:23:22.140Z,27.14
2022-07-28T05:25:49.925Z,27.29
2022-07-28T05:28:17.427Z,27.34
2022-07-28T05:30:45.552Z,27.33
2022-07-28T05:33:15.756Z,27.30
2022-07-28T05:35:44.822Z,27.27
2022-07-28T05:38:12.525Z,27.48
2022-07-28T05:40:40.344Z,27.53
2022-07-28T05:43:07.846Z,27.56
2022-07-28T05:45:35.471Z,27.57
2022-07-28T05:48:03.361Z,27.41
2022-07-28T05:50:30.967Z,27.35
2022-07-28T05:52:58.459Z,27.36
2022-07-28T05:55:26.249Z,27.43
2022-07-28T05:57:54.319Z,27.73
2022-07-28T06:00:23.128Z,27.72
2022-07-28T06:02:51.460Z,27.72
2022-07-28T06:05:20.678Z,27.74
2022-07-28T06:07:49.578Z,27.54
2022-07-28T06:10:20.274Z,26.77
2022-07-28T06:12:50.363Z,27.09
2022-07-28T06:15:21.607Z,27.29
2022-07-28T06:17:52.806Z,27.62
2022-07-28T06:20:21.844Z,27.60
2022-07-28T06:22:51.532Z,27.47
2022-07-28T06:25:22.963Z,27.71
2022-07-28T06:27:53.011Z,27.87
2022-07-28T06:30:21.267Z,27.55
2022-07-28T06:32:49.353Z,27.69
2022-07-28T06:35:18.041Z,28.00
2022-07-28T06:37:46.468Z,28.08
2022-07-28T06:40:15.364Z,28.18
2022-07-28T06:42:43.829Z,28.25
2022-07-28T06:45:19.619Z,28.38
2022-07-28T06:47:50.238Z,28.52
2022-07-28T06:50:25.687Z,28.06
2022-07-28T06:52:59.208Z,28.45
2022-07-28T06:55:34.551Z,28.60
2022-07-28T06:58:04.324Z,28.71
2022-07-28T07:00:32.060Z,28.63
2022-07-28T07:03:00.782Z,28.70
2022-07-28T07:05:32.692Z,28.84
2022-07-28T07:08:00.843Z,28.88
2022-07-28T07:10:28.855Z,29.00
2022-07-28T07:12:56.451Z,29.04
2022-07-28T07:15:23.988Z,28.90
2022-07-28T07:17:52.311Z,28.98
2022-07-28T07:20:19.881Z,29.10
2022-07-28T07:22:48.001Z,29.18
2022-07-28T07:25:17.926Z,29.03
2022-07-28T07:27:45.813Z,28.73
2022-07-28T07:30:14.649Z,28.66
2022-07-28T07:32:43.082Z,29.10
2022-07-28T07:35:10.850Z,28.83
2022-07-28T07:37:38.510Z,28.54
2022-07-28T07:40:07.101Z,28.89
2022-07-28T07:42:34.635Z,29.10
2022-07-28T07:45:02.617Z,28.89
2022-07-28T07:47:31.207Z,28.86
2022-07-28T07:50:00.067Z,28.85
2022-07-28T07:52:29.420Z,28.70
2022-07-28T07:54:57.147Z,28.73
2022-07-28T07:57:24.652Z,29.00
2022-07-28T07:59:52.098Z,28.75
2022-07-28T08:02:19.873Z,29.15
2022-07-28T08:04:47.838Z,29.24
2022-07-28T08:07:16.026Z,28.76
2022-07-28T08:09:43.593Z,29.23
2022-07-28T08:12:11.339Z,29.07
2022-07-28T08:14:38.807Z,29.29
2022-07-28T08:17:06.392Z,29.31
2022-07-28T08:19:34.173Z,29.43
2022-07-28T08:22:02.485Z,29.63
2022-07-28T08:24:34.024Z,29.02
2022-07-28T08:27:02.989Z,29.00
2022-07-28T08:29:30.735Z,29.23
2022-07-28T08:31:58.424Z,29.60
2022-07-28T08:34:31.219Z,29.33
2022-07-28T08:37:02.642Z,29.66
2022-07-28T08:39:33.924Z,29.63
2022-07-28T08:42:25.884Z,29.94
2022-07-28T08:44:53.670Z,29.99
2022-07-28T08:47:21.522Z,29.80
2022-07-28T08:49:50.262Z,29.87
2022-07-28T08:52:20.723Z,30.20
2022-07-28T08:54:49.883Z,30.32
2022-07-28T08:57:21.139Z,30.52
2022-07-28T08:59:50.124Z,29.48
2022-07-28T09:02:18.066Z,30.15
2022-07-28T09:04:46.402Z,30.07
2022-07-28T09:07:15.077Z,30.46
2022-07-28T09:09:42.613Z,30.81
2022-07-28T09:12:10.249Z,30.86
2022-07-28T09:14:37.993Z,30.76
2022-07-28T09:17:06.074Z,31.06
2022-07-28T09:19:35.786Z,31.01
2022-07-28T09:22:04.039Z,31.16
2022-07-28T09:24:41.572Z,31.38
2022-07-28T09:27:11.463Z,30.28
2022-07-28T09:29:41.865Z,30.81
2022-07-28T09:32:09.737Z,31.23
2022-07-28T09:34:41.771Z,31.35
2022-07-28T09:37:27.387Z,31.61
2022-07-28T09:40:10.790Z,31.78
2022-07-28T09:42:55.433Z,32.12
2022-07-28T09:45:27.499Z,31.70
2022-07-28T09:48:13.125Z,32.46
2022-07-28T09:50:42.412Z,32.68
2022-07-28T09:53:27.352Z,32.98
2022-07-28T09:56:00.684Z,33.12
2022-07-28T09:58:30.472Z,32.74
2022-07-28T10:01:15.689Z,33.09
2022-07-28T10:03:50.207Z,33.11
2022-07-28T10:06:26.326Z,33.53
2022-07-28T10:08:55.682Z,33.35
2022-07-28T10:11:26.765Z,33.48
2022-07-28T10:14:05.527Z,33.26
2022-07-28T10:16:35.302Z,33.59
2022-07-28T10:19:05.528Z,33.90
2022-07-28T10:21:36.576Z,34.07
2022-07-28T10:24:08.806Z,33.82
2022-07-28T10:26:43.889Z,33.80
2022-07-28T10:29:21.085Z,33.75
2022-07-28T10:31:58.015Z,33.69
2022-07-28T10:34:34.586Z,33.69
2022-07-28T10:37:04.119Z,33.80
2022-07-28T10:39:42.552Z,33.85
2022-07-28T10:42:12.040Z,33.81
2022-07-28T10:44:41.664Z,34.47
2022-07-28T10:47:09.595Z,33.97
2022-07-28T10:49:49.808Z,34.16
2022-07-28T10:55:31.756Z,34.79
2022-07-28T10:58:10.822Z,34.70
2022-07-28T11:00:58.342Z,34.81
2022-07-28T11:03:43.820Z,34.53
2022-07-28T11:06:27.893Z,33.90
2022-07-28T11:09:00.918Z,34.02
2022-07-28T11:11:50.977Z,33.16
2022-07-28T11:14:25.924Z,33.54
2022-07-28T11:17:00.527Z,34.08
2022-07-28T11:19:42.003Z,33.39
2022-07-28T11:22:19.272Z,33.95
2022-07-28T11:25:00.768Z,33.90
2022-07-28T11:27:51.048Z,33.97
2022-07-28T11:30:18.908Z,33.89
2022-07-28T11:32:55.046Z,33.94
2022-07-28T11:35:26.734Z,33.94
2022-07-28T11:38:00.475Z,33.95
2022-07-28T11:40:40.516Z,33.85
2022-07-28T11:43:28.657Z,34.04
2022-07-28T11:46:09.462Z,34.02
2022-07-28T11:48:39.976Z,33.57
2022-07-28T11:51:07.801Z,33.67
2022-07-28T11:53:42.812Z,33.06
2022-07-28T11:56:27.132Z,33.55
2022-07-28T11:59:05.836Z,33.61
2022-07-28T12:01:37.023Z,33.52
2022-07-28T12:04:14.868Z,33.34
2022-07-28T12:06:43.156Z,33.38
2022-07-28T12:09:11.387Z,33.22
2022-07-28T12:11:41.181Z,32.98
2022-07-28T12:14:11.091Z,32.94
2022-07-28T12:16:41.187Z,32.94
2022-07-28T12:19:10.108Z,32.91
2022-07-28T12:21:46.436Z,32.89
2022-07-28T12:24:29.783Z,33.05
2022-07-28T12:26:58.250Z,33.02
2022-07-28T12:29:33.514Z,32.78
2022-07-28T12:32:09.982Z,32.76
2022-07-28T12:34:40.540Z,32.87
2022-07-28T12:37:12.316Z,33.02
2022-07-28T12:39:42.713Z,32.99
2022-07-28T12:42:13.606Z,33.17
2022-07-28T12:44:41.927Z,32.97
2022-07-28T12:47:12.365Z,33.07
2022-07-28T12:49:42.530Z,33.21
2022-07-28T12:52:22.205Z,32.74
2022-07-28T12:54:53.589Z,32.92
2022-07-28T12:57:49.294Z,32.67
2022-07-28T13:00:36.145Z,33.15
2022-07-28T13:03:20.435Z,32.99
2022-07-28T13:06:03.399Z,32.90
2022-07-28T13:08:44.338Z,33.25
2022-07-28T13:11:28.430Z,33.68
2022-07-28T13:14:02.430Z,33.62
2022-07-28T13:16:30.109Z,33.29
2022-07-28T13:19:02.545Z,33.28
2022-07-28T13:21:58.335Z,33.32
2022-07-28T13:24:28.328Z,33.28
2022-07-28T13:26:56.957Z,33.51
2022-07-28T13:29:24.875Z,33.79
2022-07-28T13:31:54.766Z,33.61
2022-07-28T13:34:23.513Z,33.20
2022-07-28T13:36:52.422Z,33.76
2022-07-28T13:39:20.107Z,33.48
2022-07-28T13:41:56.358Z,33.69
2022-07-28T13:44:30.050Z,33.92
2022-07-28T13:46:59.584Z,34.13
2022-07-28T13:49:28.900Z,34.31
2022-07-28T13:51:56.572Z,34.00
2022-07-28T13:54:25.606Z,34.19
2022-07-28T13:57:12.359Z,34.20
2022-07-28T13:59:41.800Z,33.46
2022-07-28T14:02:15.512Z,33.70
2022-07-28T14:04:50.759Z,33.57
2022-07-28T14:07:20.739Z,33.76
2022-07-28T14:09:50.823Z,33.57
2022-07-28T14:12:18.682Z,33.02
2022-07-28T14:14:47.777Z,32.99
2022-07-28T14:20:10.848Z,34.04
2022-07-28T14:22:38.667Z,33.81
2022-07-28T14:25:06.514Z,33.90
2022-07-28T14:27:34.406Z,34.00
2022-07-28T14:30:04.072Z,33.94
2022-07-28T14:32:32.383Z,33.91
2022-07-28T14:35:02.299Z,33.73
2022-07-28T14:37:47.106Z,33.61
2022-07-28T14:40:17.983Z,34.18
2022-07-28T14:42:45.836Z,33.83
2022-07-28T14:45:13.440Z,34.34
2022-07-28T14:47:44.680Z,34.26
2022-07-28T14:50:13.652Z,34.41
2022-07-28T14:52:44.835Z,34.26
2022-07-28T14:55:13.156Z,34.17
2022-07-28T14:57:50.199Z,34.62
2022-07-28T15:00:24.169Z,34.14
2022-07-28T15:02:53.135Z,34.28
2022-07-28T15:05:21.932Z,34.20
2022-07-28T15:07:52.153Z,34.60
2022-07-28T15:10:20.473Z,34.27
2022-07-28T15:12:48.218Z,34.57
2022-07-28T15:15:16.382Z,34.56
2022-07-28T15:17:43.949Z,34.61
2022-07-28T15:20:11.630Z,34.40
2022-07-28T15:22:39.404Z,34.51
2022-07-28T15:25:07.209Z,34.52
2022-07-28T15:27:34.720Z,34.49
2022-07-28T15:30:03.422Z,34.64
2022-07-28T15:32:31.688Z,34.89
2022-07-28T15:34:59.783Z,34.63
2022-07-28T15:37:28.090Z,34.66
2022-07-28T15:39:55.852Z,34.36
2022-07-28T15:42:23.404Z,34.53
2022-07-28T15:44:52.019Z,34.44
2022-07-28T15:47:19.585Z,34.71
2022-07-28T15:49:47.089Z,34.27
2022-07-28T15:52:14.962Z,34.43
2022-07-28T15:54:43.137Z,34.60
2022-07-28T15:57:11.695Z,34.70
2022-07-28T15:59:49.414Z,34.47
2022-07-28T16:02:19.254Z,34.61
2022-07-28T16:04:51.475Z,34.31
2022-07-28T16:07:24.988Z,34.54
2022-07-28T16:09:55.440Z,34.52
2022-07-28T16:12:25.283Z,34.71
2022-07-28T16:14:56.899Z,34.57
2022-07-28T16:17:24.684Z,34.37
2022-07-28T16:19:52.315Z,34.38
2022-07-28T16:22:21.023Z,34.16
2022-07-28T16:24:49.351Z,34.62
2022-07-28T16:27:17.055Z,33.84
2022-07-28T16:29:44.938Z,33.78
2022-07-28T16:32:12.913Z,34.26
2022-07-28T16:34:40.526Z,33.21
2022-07-28T16:37:08.320Z,33.83
2022-07-28T16:39:35.805Z,33.77
2022-07-28T16:42:03.486Z,33.68
2022-07-28T16:44:31.485Z,34.17
2022-07-28T16:46:59.061Z,34.04
2022-07-28T16:49:26.794Z,34.00
2022-07-28T16:51:55.557Z,33.48
2022-07-28T16:54:23.156Z,33.36
2022-07-28T16:56:51.180Z,33.84
2022-07-28T16:59:19.021Z,33.52
2022-07-28T17:01:46.949Z,33.68
2022-07-28T17:04:15.826Z,34.01
2022-07-28T17:06:44.614Z,33.77
2022-07-28T17:09:12.485Z,34.01
2022-07-28T17:11:42.121Z,33.83
2022-07-28T17:14:10.749Z,33.94
2022-07-28T17:16:38.693Z,33.88
2022-07-28T17:19:06.232Z,33.93
2022-07-28T17:21:35.952Z,33.89
2022-07-28T17:24:04.177Z,33.67
2022-07-28T17:29:19.892Z,33.61
2022-07-28T17:31:47.860Z,33.08
2022-07-28T17:34:15.716Z,33.33
2022-07-28T17:36:45.398Z,33.32
2022-07-28T17:39:13.030Z,33.32
2022-07-28T17:41:40.654Z,33.12
2022-07-28T17:44:08.464Z,33.30
2022-07-28T17:46:36.071Z,33.47
2022-07-28T17:49:05.779Z,33.49
2022-07-28T17:51:33.648Z,33.47
2022-07-28T17:54:01.150Z,33.47
2022-07-28T17:56:31.308Z,33.49
2022-07-28T17:58:59.274Z,33.44
2022-07-28T18:01:26.910Z,33.35
2022-07-28T18:03:59.343Z,33.29
2022-07-28T18:06:34.349Z,33.17
2022-07-28T18:09:05.852Z,33.21
2022-07-28T18:11:56.486Z,33.25
2022-07-28T18:14:27.286Z,33.12
2022-07-28T18:16:55.265Z,33.06
2022-07-28T18:19:22.757Z,33.05
2022-07-28T18:21:51.623Z,33.00
2022-07-28T18:24:22.113Z,33.01
2022-07-28T18:26:53.448Z,32.93
2022-07-28T18:29:21.761Z,32.91
2022-07-28T18:31:51.211Z,32.83
2022-07-28T18:34:23.093Z,32.67
2022-07-28T18:36:51.378Z,32.69
2022-07-28T18:39:18.988Z,32.57
2022-07-28T18:41:47.980Z,32.59
2022-07-28T18:44:17.553Z,32.55
2022-07-28T18:46:45.867Z,32.43
2022-07-28T18:49:14.040Z,32.39
2022-07-28T18:51:45.511Z,32.39
2022-07-28T18:54:18.713Z,32.38
2022-07-28T18:56:49.718Z,32.28
2022-07-28T18:59:17.401Z,32.29
2022-07-28T19:01:45.036Z,32.20
2022-07-28T19:04:13.274Z,32.19
2022-07-28T19:06:41.459Z,32.16
2022-07-28T19:09:09.067Z,32.07
2022-07-28T19:11:36.890Z,32.04
2022-07-28T19:14:04.478Z,31.93
2022-07-28T19:16:33.693Z,31.90
2022-07-28T19:19:01.720Z,31.84
2022-07-28T19:21:31.315Z,31.78
2022-07-28T19:23:59.204Z,31.69
2022-07-28T19:26:27.023Z,31.61
2022-07-28T19:28:54.986Z,31.60
2022-07-28T19:31:22.749Z,31.57
2022-07-28T19:33:50.947Z,31.38
2022-07-28T19:36:18.487Z,31.18
2022-07-28T19:38:45.997Z,31.14
2022-07-28T19:41:14.325Z,31.10
2022-07-28T19:43:42.198Z,31.05
2022-07-28T19:46:10.279Z,30.95
2022-07-28T19:48:38.545Z,30.81
2022-07-28T19:51:06.357Z,30.93
2022-07-28T19:53:34.549Z,30.66
2022-07-28T19:56:08.831Z,30.51
2022-07-28T19:58:36.979Z,30.53
2022-07-28T20:01:05.635Z,30.43
2022-07-28T20:04:04.106Z,30.36
2022-07-28T20:06:24.974Z,30.14
2022-07-28T20:08:54.228Z,30.11
2022-07-28T20:11:21.780Z,30.08
2022-07-28T20:13:49.681Z,30.15
2022-07-28T20:16:17.679Z,30.19
2022-07-28T20:18:45.274Z,30.21
2022-07-28T20:21:12.806Z,30.17
2022-07-28T20:23:41.144Z,30.16
2022-07-28T20:26:10.159Z,30.10
2022-07-28T20:28:38.149Z,29.94
2022-07-28T20:31:07.280Z,29.89
2022-07-28T20:33:34.950Z,29.90
2022-07-28T20:36:02.649Z,29.86
2022-07-28T20:38:30.414Z,29.81
2022-07-28T20:40:57.916Z,29.78
2022-07-28T20:43:25.426Z,29.69
2022-07-28T20:46:05.304Z,29.66
2022-07-28T20:48:33.739Z,29.57
2022-07-28T20:51:01.358Z,29.48
2022-07-28T20:53:29.177Z,29.39
2022-07-28T20:55:56.716Z,29.29
2022-07-28T20:58:24.325Z,29.24
2022-07-28T21:00:52.176Z,29.17
2022-07-28T21:03:19.801Z,29.06
2022-07-28T21:05:47.289Z,29.07
2022-07-28T21:08:17.173Z,28.99
2022-07-28T21:10:46.280Z,29.04
2022-07-28T21:13:13.890Z,29.04
2022-07-28T21:15:41.694Z,28.85
2022-07-28T21:18:10.135Z,28.84
2022-07-28T21:20:37.716Z,28.81
2022-07-28T21:23:06.366Z,28.82
2022-07-28T21:25:34.590Z,28.71
2022-07-28T21:28:20.895Z,28.75
2022-07-28T21:30:48.767Z,28.72
2022-07-28T21:33:22.372Z,28.55
2022-07-28T21:35:50.816Z,28.51
2022-07-28T21:38:18.300Z,28.66
2022-07-28T21:40:45.800Z,28.55
2022-07-28T21:43:13.591Z,28.53
2022-07-28T21:45:41.314Z,28.51
2022-07-28T21:48:08.935Z,28.36
2022-07-28T21:50:37.605Z,28.27
2022-07-28T21:53:05.089Z,28.41
2022-07-28T21:55:32.628Z,28.37
2022-07-28T21:58:00.636Z,28.31
2022-07-28T22:00:28.214Z,28.37
2022-07-28T22:02:55.959Z,28.30
2022-07-28T22:05:27.881Z,28.31
2022-07-28T22:07:55.701Z,28.28
2022-07-28T22:10:24.300Z,28.13
2022-07-28T22:12:52.008Z,28.28
2022-07-28T22:15:19.887Z,28.39
2022-07-28T22:17:48.027Z,28.32
2022-07-28T22:20:15.697Z,28.47
2022-07-28T22:22:43.511Z,28.53
2022-07-28T22:25:11.087Z,28.42
2022-07-28T22:27:38.722Z,28.48
2022-07-28T22:30:07.458Z,28.25
2022-07-28T22:32:35.052Z,28.42
2022-07-28T22:35:02.722Z,28.47
2022-07-28T22:37:30.577Z,28.42
2022-07-28T22:39:58.291Z,28.52
2022-07-28T22:42:25.771Z,28.48
2022-07-28T22:44:53.663Z,28.49
2022-07-28T22:47:21.097Z,28.39
2022-07-28T22:49:48.635Z,28.31
2022-07-28T22:52:16.390Z,28.31
2022-07-28T22:54:44.095Z,28.27
2022-07-28T22:57:11.739Z,28.36
2022-07-28T22:59:39.897Z,28.21
2022-07-28T23:02:08.020Z,28.33
2022-07-28T23:04:39.113Z,28.33
2022-07-28T23:07:12.137Z,28.30
2022-07-28T23:09:41.715Z,28.23
2022-07-28T23:12:10.065Z,28.27
2022-07-28T23:14:37.555Z,27.94
2022-07-28T23:17:05.477Z,27.85
2022-07-28T23:19:33.095Z,27.78
2022-07-28T23:22:00.547Z,27.80
2022-07-28T23:24:28.280Z,27.53
2022-07-28T23:26:55.970Z,27.66
2022-07-28T23:29:23.496Z,27.57
2022-07-28T23:31:51.316Z,27.56
2022-07-28T23:34:19.106Z,27.60
2022-07-28T23:36:47.975Z,27.54
2022-07-28T23:39:15.766Z,27.57
2022-07-28T23:41:43.273Z,27.59
2022-07-28T23:44:10.761Z,27.51
2022-07-28T23:46:38.581Z,27.41
2022-07-28T23:49:06.127Z,27.44
2022-07-28T23:51:48.047Z,27.34
2022-07-28T23:54:17.143Z,27.37
2022-07-28T23:56:45.083Z,27.39
2022-07-28T23:59:14.250Z,27.33
